createdAt,value
2023-02-01T00:03:47.466Z,18.50
2023-02-01T00:08:54.212Z,18.21
2023-02-01T00:14:00.217Z,18.63
2023-02-01T00:19:09.820Z,18.18
2023-02-01T00:24:14.709Z,16.97
2023-02-01T00:29:19.981Z,17.12
2023-02-01T00:34:28.278Z,16.99
2023-02-01T00:39:33.157Z,15.98
2023-02-01T00:44:37.913Z,15.57
2023-02-01T00:49:41.297Z,15.36
2023-02-01T00:54:46.204Z,14.55
2023-02-01T00:59:51.780Z,15.68
2023-02-01T01:04:55.298Z,14.31
2023-02-01T01:10:00.291Z,12.51
2023-02-01T01:15:03.749Z,12.89
2023-02-01T01:20:07.507Z,13.94
2023-02-01T01:25:14.742Z,14.05
2023-02-01T01:30:20.613Z,14.56
2023-02-01T01:35:24.148Z,24.07
2023-02-01T01:40:32.291Z,15.34
2023-02-01T01:45:36.622Z,15.41
2023-02-01T01:50:42.903Z,15.22
2023-02-01T01:55:52.741Z,19.63
2023-02-01T02:00:56.879Z,16.29
2023-02-01T02:06:05.030Z,16.26
2023-02-01T02:11:16.237Z,16.13
2023-02-01T02:16:29.301Z,16.14
2023-02-01T02:21:52.047Z,14.81
2023-02-01T02:27:06.684Z,16.24
2023-02-01T02:32:26.367Z,9.87
2023-02-01T02:37:37.825Z,6.44
2023-02-01T02:43:02.606Z,5.43
2023-02-01T02:48:15.468Z,6.01
2023-02-01T02:53:42.638Z,6.10
2023-02-01T02:59:06.372Z,6.43
2023-02-01T03:04:11.205Z,5.81
2023-02-01T03:09:24.455Z,5.97
2023-02-01T03:14:32.103Z,6.70
2023-02-01T03:19:39.631Z,15.77
2023-02-01T03:24:47.505Z,8.00
2023-02-01T03:29:55.853Z,6.35
2023-02-01T03:35:00.216Z,7.25
2023-02-01T03:40:12.585Z,10.03
2023-02-01T03:45:21.672Z,6.75
2023-02-01T03:50:29.319Z,6.45
2023-02-01T03:55:34.783Z,7.17
2023-02-01T04:00:46.076Z,8.94
2023-02-01T04:05:49.506Z,8.27
2023-02-01T04:10:54.482Z,19.29
2023-02-01T04:15:57.953Z,18.40
2023-02-01T04:21:04.691Z,17.65
2023-02-01T04:26:14.088Z,19.73
2023-02-01T04:31:26.529Z,16.77
2023-02-01T04:36:30.154Z,14.94
2023-02-01T04:41:39.559Z,14.93
2023-02-01T04:46:46.076Z,13.38
2023-02-01T04:51:49.520Z,14.61
2023-02-01T04:56:54.297Z,17.63
2023-02-01T05:01:57.696Z,16.37
2023-02-01T05:07:01.119Z,16.33
2023-02-01T05:12:29.290Z,23.81
2023-02-01T05:17:35.876Z,18.10
2023-02-01T05:22:44.108Z,19.71
2023-02-01T05:27:48.904Z,18.87
2023-02-01T05:32:52.680Z,17.02
2023-02-01T05:37:56.202Z,16.68
2023-02-01T05:43:00.955Z,16.31
2023-02-01T05:48:04.453Z,16.84
2023-02-01T05:53:08.056Z,18.48
2023-02-01T05:58:13.370Z,18.07
2023-02-01T06:03:16.759Z,17.84
2023-02-01T06:08:20.270Z,17.68
2023-02-01T06:13:25.119Z,18.65
2023-02-01T06:18:32.048Z,17.62
2023-02-01T06:23:35.475Z,22.12
2023-02-01T06:28:40.837Z,20.67
2023-02-01T06:33:44.283Z,23.09
2023-02-01T06:38:47.790Z,21.88
2023-02-01T06:43:52.570Z,23.02
2023-02-01T06:48:56.737Z,23.20
2023-02-01T06:54:03.267Z,24.35
2023-02-01T06:59:08.247Z,29.38
2023-02-01T07:04:12.462Z,32.29
2023-02-01T07:09:16.006Z,20.33
2023-02-01T07:14:20.805Z,35.20
2023-02-01T07:19:26.475Z,31.22
2023-02-01T07:24:30.183Z,25.60
2023-02-01T07:29:34.921Z,22.47
2023-02-01T07:34:38.434Z,21.22
2023-02-01T07:39:41.884Z,18.72
2023-02-01T07:44:46.710Z,19.69
2023-02-01T07:49:50.231Z,18.43
2023-02-01T07:54:53.619Z,19.93
2023-02-01T08:00:20.949Z,21.94
2023-02-01T08:05:30.216Z,19.77
2023-02-01T08:10:34.157Z,21.23
2023-02-01T08:15:41.296Z,20.06
2023-02-01T08:20:46.589Z,19.66
2023-02-01T08:25:50.111Z,19.82
2023-02-01T08:30:54.884Z,21.00
2023-02-01T08:35:58.425Z,29.95
2023-02-01T08:41:06.527Z,23.23
2023-02-01T08:46:12.166Z,22.86
2023-02-01T08:51:19.389Z,19.00
2023-02-01T08:56:22.835Z,19.44
2023-02-01T09:01:27.749Z,18.61
2023-02-01T09:06:36.575Z,18.32
2023-02-01T09:11:39.983Z,17.78
2023-02-01T09:16:49.447Z,16.55
2023-02-01T09:21:53.014Z,17.78
2023-02-01T09:26:56.429Z,31.86
2023-02-01T09:32:04.409Z,19.34
2023-02-01T09:37:08.313Z,20.40
2023-02-01T09:42:23.499Z,20.57
2023-02-01T09:47:28.955Z,18.60
2023-02-01T09:52:38.411Z,21.36
2023-02-01T09:57:47.411Z,20.03
2023-02-01T10:02:52.446Z,20.17
2023-02-01T10:08:04.301Z,17.72
2023-02-01T10:13:34.516Z,22.93
2023-02-01T10:18:56.817Z,30.75
2023-02-01T10:24:18.180Z,19.30
2023-02-01T10:29:25.336Z,19.61
2023-02-01T10:34:29.894Z,18.67
2023-02-01T10:39:34.645Z,18.84
2023-02-01T10:44:44.030Z,17.65
2023-02-01T10:49:54.940Z,19.09
2023-02-01T10:55:19.711Z,21.55
2023-02-01T11:00:24.606Z,33.16
2023-02-01T11:05:28.263Z,21.48
2023-02-01T11:10:37.505Z,20.18
2023-02-01T11:15:47.559Z,21.40
2023-02-01T11:20:52.945Z,20.31
2023-02-01T11:25:58.228Z,20.77
2023-02-01T11:31:08.785Z,21.74
2023-02-01T11:36:15.373Z,21.67
2023-02-01T11:41:23.336Z,20.72
2023-02-01T11:46:30.816Z,22.66
2023-02-01T11:51:43.735Z,20.46
2023-02-01T11:56:55.606Z,29.25
2023-02-01T12:02:13.918Z,20.55
2023-02-01T12:07:24.670Z,21.08
2023-02-01T12:12:36.628Z,23.63
2023-02-01T12:17:55.206Z,21.05
2023-02-01T12:23:12.275Z,18.05
2023-02-01T12:28:31.927Z,17.58
2023-02-01T12:33:48.285Z,18.83
2023-02-01T12:38:56.713Z,21.56
2023-02-01T12:44:11.028Z,19.00
2023-02-01T12:49:18.987Z,12.16
2023-02-01T12:54:36.971Z,12.28
2023-02-01T12:59:43.901Z,24.09
2023-02-01T13:04:59.111Z,11.78
2023-02-01T13:10:11.056Z,11.37
2023-02-01T13:15:19.255Z,11.55
2023-02-01T13:20:28.873Z,10.53
2023-02-01T13:25:40.144Z,10.77
2023-02-01T13:30:56.939Z,10.52
2023-02-01T13:36:22.986Z,10.94
2023-02-01T13:41:30.959Z,10.96
2023-02-01T13:46:41.792Z,10.76
2023-02-01T13:51:48.159Z,11.93
2023-02-01T13:56:53.083Z,10.85
2023-02-01T14:02:32.996Z,13.73
2023-02-01T14:07:38.763Z,13.96
2023-02-01T14:12:51.023Z,19.79
2023-02-01T14:17:55.401Z,18.78
2023-02-01T14:23:03.428Z,19.79
2023-02-01T14:28:14.463Z,21.00
2023-02-01T14:33:23.989Z,22.09
2023-02-01T14:38:27.758Z,22.81
2023-02-01T14:44:14.906Z,18.26
2023-02-01T14:49:20.935Z,20.81
2023-02-01T14:54:25.511Z,32.60
2023-02-01T14:59:34.353Z,20.32
2023-02-01T15:04:43.761Z,20.75
2023-02-01T15:09:49.833Z,20.11
2023-02-01T15:15:13.280Z,20.68
2023-02-01T15:20:23.274Z,18.85
2023-02-01T15:25:29.062Z,18.13
2023-02-01T15:30:35.744Z,19.31
2023-02-01T15:35:44.201Z,22.09
2023-02-01T15:40:55.880Z,18.55
2023-02-01T15:46:02.575Z,19.38
2023-02-01T15:51:14.690Z,16.92
2023-02-01T15:56:23.515Z,17.90
2023-02-01T16:01:28.380Z,18.51
2023-02-01T16:06:35.540Z,18.74
2023-02-01T16:11:49.115Z,17.54
2023-02-01T16:16:59.207Z,17.92
2023-02-01T16:22:02.644Z,23.50
2023-02-01T16:27:08.747Z,20.59
2023-02-01T16:32:18.299Z,19.53
2023-02-01T16:37:23.851Z,21.98
2023-02-01T16:42:27.221Z,19.17
2023-02-01T16:47:32.021Z,22.51
2023-02-01T16:52:37.775Z,22.11
2023-02-01T16:57:41.604Z,27.71
2023-02-01T17:02:46.788Z,19.97
2023-02-01T17:07:50.377Z,20.75
2023-02-01T17:12:53.753Z,19.02
2023-02-01T17:18:00.757Z,18.58
2023-02-01T17:23:07.157Z,23.65
2023-02-01T17:28:10.714Z,20.08
2023-02-01T17:33:22.790Z,21.83
2023-02-01T17:38:26.323Z,19.96
2023-02-01T17:43:29.976Z,19.85
2023-02-01T17:48:36.976Z,22.07
2023-02-01T17:53:40.421Z,26.99
2023-02-01T17:58:46.664Z,20.58
2023-02-01T18:03:53.627Z,22.25
2023-02-01T18:08:59.443Z,20.06
2023-02-01T18:14:02.911Z,20.98
2023-02-01T18:19:07.644Z,21.84
2023-02-01T18:24:19.371Z,34.23
2023-02-01T18:29:22.761Z,24.36
2023-02-01T18:34:27.614Z,24.52
2023-02-01T18:39:31.137Z,18.24
2023-02-01T18:44:41.183Z,25.01
2023-02-01T18:49:45.995Z,25.17
2023-02-01T18:54:59.065Z,18.29
2023-02-01T19:00:06.748Z,19.43
2023-02-01T19:05:13.737Z,21.68
2023-02-01T19:10:19.112Z,21.05
2023-02-01T19:15:23.652Z,21.59
2023-02-01T19:20:29.082Z,18.19
2023-02-01T19:25:32.774Z,18.80
2023-02-01T19:30:36.261Z,18.88
2023-02-01T19:35:41.275Z,19.18
2023-02-01T19:40:50.060Z,17.35
2023-02-01T19:45:54.161Z,19.17
2023-02-01T19:51:00.580Z,28.69
2023-02-01T19:56:07.201Z,22.03
2023-02-01T20:01:13.403Z,21.41
2023-02-01T20:06:18.974Z,17.06
2023-02-01T20:11:23.355Z,15.12
2023-02-01T20:16:30.093Z,18.25
2023-02-01T20:21:34.875Z,19.19
2023-02-01T20:26:42.042Z,18.58
2023-02-01T20:31:47.954Z,20.27
2023-02-01T20:36:52.866Z,20.18
2023-02-01T20:41:57.016Z,19.49
2023-02-01T20:47:00.527Z,20.13
2023-02-01T20:52:05.346Z,20.69
2023-02-01T20:57:11.323Z,21.30
2023-02-01T21:02:14.966Z,21.85
2023-02-01T21:07:20.216Z,21.07
2023-02-01T21:12:23.718Z,20.54
2023-02-01T21:17:28.620Z,19.40
2023-02-01T21:22:38.022Z,21.11
2023-02-01T21:27:41.430Z,18.71
2023-02-01T21:32:44.927Z,17.53
2023-02-01T21:37:49.682Z,15.87
2023-02-01T21:42:55.314Z,16.74
2023-02-01T21:47:58.844Z,17.85
2023-02-01T21:53:04.676Z,17.78
2023-02-01T21:58:12.692Z,19.51
2023-02-01T22:03:16.121Z,18.58
2023-02-01T22:08:20.979Z,17.39
2023-02-01T22:13:24.495Z,18.81
2023-02-01T22:18:28.383Z,18.36
2023-02-01T22:23:33.171Z,19.63
2023-02-01T22:28:39.796Z,19.01
2023-02-01T22:33:43.380Z,19.34
2023-02-01T22:38:50.875Z,18.07
2023-02-01T22:43:56.596Z,19.08
2023-02-01T22:49:00.442Z,18.40
2023-02-01T22:54:05.213Z,19.70
2023-02-01T22:59:12.715Z,16.75
2023-02-01T23:04:21.390Z,15.54
2023-02-01T23:09:27.016Z,16.07
2023-02-01T23:14:30.414Z,17.54
2023-02-01T23:19:36.125Z,17.23
2023-02-01T23:24:43.294Z,15.25
2023-02-01T23:29:49.076Z,15.96
2023-02-01T23:34:52.559Z,18.04
2023-02-01T23:39:57.342Z,17.32
2023-02-01T23:45:00.780Z,17.61
2023-02-01T23:50:04.224Z,18.39
2023-02-01T23:55:09.533Z,18.01
